Sonnenkopf, Austria
Current Conditions -  °F | °C
As of 4:50 PM on Friday 19 Dec 2014 (Local Time) from LSZR Reporting Station
Clear Clear  
Wind Chill: 50°   Ceiling: Unl
Heat Index: 50°   Visibility: 6mi
Dew Point: 45°   Wind: 1mph
Humidity: 82%   Direction: NA
Pressure: 30.12"   Gusts: NA
Location:  47.13°N, 10.06°E
Report Text: LSZR 191450Z VRB01KT CAVOK 10/07 Q1020 NOSIG RMK J
Loading
Personal Weather Stations






























Interactive Weather Map New forecast layout! Learn more

10-Day Weather Forecast

Advertisements
Track Severe Weather on mobile